Tiempo atmosférico en la estación meteorológica de Abla, Almería (885 m.)



Fecha
DESCASC
Temp. máxima en grados centígrados (hora)
DESCASC
Temp. mínima en grados centígrados (hora)
DESCASC
Temp. media en grados centígrados
DESCASC
Racha de viento máxima en m/sg (hora)
DESCASC
Velocidad máxima media en intervalos de 10 minutos(hora)
DESCASC
Precipitaciones diarias en mm
DESCASC
Precipitaciones de 00:00 a 06:00 en mm
DESCASC
Precipitaciones de 06:00 a 12:00 en mm
DESCASC
Precipitaciones de 12:00 a 18:00 en mm
DESCASC
Precipitaciones de 18:00 a 24:00 en mm
DESCASC
16-06-2019 26.2 (18:20) 13.6 (06:40) 19.9 9.72 (15:50) 4.72 (11:10) 0 0 0 0 0
15-06-2019 27.6 (13:30) 12.7 (07:10) 20.2 11.67 (14:10) 5 (14:30) 0 0 0 0 0
14-06-2019 30.1 (16:40) 15.8 (03:20) 23 7.5 (18:10) 3.61 (18:20) 2.2 2.2 0 0 0
13-06-2019 25.9 (15:00) 13.2 (00:00) 19.5 10.83 (14:10) 5.28 (13:20) 0 0 0 0 0
12-06-2019 24 (15:50) 13.2 (00:00) 18.6 10.56 (17:20) 5.28 (18:50) 0 0 0 0 0
11-06-2019 29.8 (16:20) 15.8 (00:00) 22.8 8.06 (23:59) 3.89 (23:59) 0 0 0 0 0
10-06-2019 27.8 (14:40) 15.2 (00:00) 21.5 9.17 (17:30) 4.44 (17:00) 0 0 0 0 0
09-06-2019 27.8 (13:40) 15.5 (00:00) 21.6 8.33 (17:10) 3.89 (16:20) 0 0 0 0 0
08-06-2019 26.1 (15:50) 15.2 (00:00) 20.7 12.78 (09:50) 5.56 (09:50) 0 0 0 0 0
07-06-2019 27.4 (14:30) 14.4 (00:00) 20.9 8.61 (18:20) 3.89 (18:00) 0 0 0 0 0
06-06-2019 25.4 (17:50) 12.9 (00:00) 19.1 12.22 (14:50) 6.67 (15:40) 0 0 0 0 0
05-06-2019 25.6 (15:50) 16.5 (00:00) 21.1 8.33 (12:10) 4.17 (10:10) 0 0 0 0 0
04-06-2019 30.6 (14:30) 17.1 (00:00) 23.9 8.89 (17:50) 4.17 (15:50) 0 0 0 0 0
03-06-2019 29.3 (14:50) 15.5 (00:00) 22.4 11.11 (19:10) 5.83 (19:10) 0 0 0 0 0
02-06-2019 28 (16:00) 10.3 (00:00) 19.2 10.28 (17:10) 4.72 (19:20) 0 0 0 0 0
01-06-2019 26.6 (16:10) 11.2 (00:00) 18.9 9.44 (14:20) 4.72 (14:00) 0 0 0 0 0
31-05-2019 25.5 (17:10) 12.1 (00:00) 18.8 10.83 (13:00) 4.72 (13:10) 0 0 0 0 0
30-05-2019 23.7 (17:30) 10.5 (00:00) 17.1 10 (15:30) 5 (15:20) 0 0 0 0 0
29-05-2019 25.5 (15:10) 14.4 (00:00) 19.9 9.72 (15:40) 5 (16:20) 0 0 0 0 0
28-05-2019 28.4 (14:30) 18.6 (00:00) 23.5 10.56 (17:20) 5 (16:10) 0 0 0 0 0
27-05-2019 31 (16:00) 15.5 (00:00) 23.3 8.33 (18:40) 3.61 (18:40) 0 0 0 0 0
26-05-2019 23.3 (15:50) 11.1 (00:00) 17.2 8.61 (15:40) 4.17 (16:10) 0 0 0 0 0
25-05-2019 22.4 (15:10) 12.4 (00:00) 17.4 10 (15:50) 4.44 (18:20) 0 0 0 0 0
24-05-2019 27.5 (14:30) 14.5 (00:00) 21 10.83 (18:00) 5 (17:50) 0 0 0 0 0
23-05-2019 27.4 (15:30) 13.9 (00:00) 20.6 11.39 (17:30) 5.56 (17:40) 0 0 0 0 0
22-05-2019 24.9 (15:10) 11.3 (00:00) 18.1 10 (17:00) 5 (16:30) 0 0 0 0 0

Gráficas

Temp. máximas Temp. mínimas Temp. medias Precipitaciones Rachas de viento máximas Velocidades máximas media en intervalos de 10 minutos

Datos horarios

Fecha y hora oficial Temperatura (ºC) Velocidad del viento (km/h) Dirección del viento Racha (km/h) Dirección de racha Precipitación (mm) Presión (hPa) Tendencia (hPa) Humedad (%)
2019-06-20 23:00:00 24.3 4 Norte 15 Noroeste 0 -- -- 38
2019-06-20 22:00:00 25.5 6 Noroeste 16 Noroeste 0 -- -- 36
2019-06-20 21:00:00 27.2 7 Noroeste 16 Norte 0 -- -- 34
2019-06-20 20:00:00 27.9 0 Calma 21 Nordeste 0 -- -- 31
2019-06-20 19:00:00 28.5 10 Este 33 Este 0 -- -- 31
2019-06-20 18:00:00 30.1 12 Este 31 Este 0 -- -- 29
2019-06-20 17:00:00 30.9 13 Este 32 Este 0 -- -- 27
2019-06-20 16:00:00 30.9 13 Nordeste 31 Nordeste 0 -- -- 28
2019-06-20 15:00:00 29.7 13 Nordeste 29 Nordeste 0 -- -- 29
2019-06-20 14:00:00 30.1 12 Nordeste 26 Nordeste 0 -- -- 28
2019-06-20 13:00:00 28.8 11 Este 27 Nordeste 0 -- -- 28
2019-06-20 12:00:00 27.8 8 Nordeste 26 Nordeste 0 -- -- 31
2019-06-20 11:00:00 26.8 4 Nordeste 12 Nordeste 0 -- -- 35
2019-06-20 10:00:00 23.9 0 Calma 12 Sur 0 -- -- 39
2019-06-20 09:00:00 22.3 5 Sur 12 Norte 0 -- -- 42
2019-06-20 08:00:00 19.2 5 Sur 14 Sudoeste 0 -- -- 46
2019-06-20 07:00:00 17.8 6 Sur 19 Sur 0 -- -- 46
2019-06-20 06:00:00 18.1 8 Sur 18 Sudoeste 0 -- -- 45
2019-06-20 05:00:00 18.7 6 Norte 18 Noroeste 0 -- -- 43
2019-06-20 04:00:00 19.4 6 Noroeste 17 Oeste 0 -- -- 42
2019-06-20 03:00:00 20.2 5 Norte 15 Nordeste 0 -- -- 41
2019-06-20 02:00:00 21.1 8 Noroeste 16 Norte 0 -- -- 40
2019-06-20 01:00:00 22.1 8 Noroeste 16 Noroeste 0 -- -- 38
2019-06-20 00:00:00 23.8 3 Noroeste 14 Noroeste 0 -- -- 35
2019-06-19 23:00:00 25.3 4 Norte 14 Noroeste 0 -- -- 33
2019-06-19 22:00:00 26.6 5 Sur 13 Oeste 0 -- -- 31
2019-06-19 21:00:00 27.3 2 Nordeste 14 Este 0 -- -- 31
2019-06-19 20:00:00 28.2 5 Nordeste 18 Este 0 -- -- 30
2019-06-19 19:00:00 29.6 10 Nordeste 28 Este 0 -- -- 28
2019-06-19 18:00:00 30.6 13 Nordeste 30 Este 0 -- -- 27
2019-06-19 17:00:00 31.1 9 Nordeste 23 Este 0 -- -- 26
2019-06-19 16:00:00 30.6 10 Nordeste 25 Nordeste 0 -- -- 27
2019-06-19 15:00:00 29.9 10 Nordeste 24 Nordeste 0 -- -- 27
2019-06-19 14:00:00 29.8 10 Nordeste 24 Nordeste 0 -- -- 27
2019-06-19 13:00:00 28.5 3 Noroeste 15 Nordeste 0 -- -- 28
2019-06-19 12:00:00 27.9 3 Nordeste 15 Norte 0 -- -- 31
2019-06-19 11:00:00 26 5 Norte 14 Noroeste 0 -- -- 34
2019-06-19 10:00:00 24.3 3 Norte 15 Noroeste 0 -- -- 39
2019-06-19 09:00:00 20.8 5 Norte 14 Norte 0 -- -- 43
2019-06-19 08:00:00 18.6 6 Noroeste 21 Norte 0 -- -- 46
2019-06-19 07:00:00 17.2 9 Noroeste 18 Noroeste 0 -- -- 45
2019-06-19 06:00:00 17.5 6 Noroeste 11 Noroeste 0 -- -- 44
2019-06-19 05:00:00 18.2 4 Norte 17 Noroeste 0 -- -- 42
2019-06-19 04:00:00 18.8 6 Norte 16 Norte 0 -- -- 41
2019-06-19 03:00:00 19 3 Noroeste 10 Noroeste 0 -- -- 40
2019-06-19 02:00:00 19.9 2 Noroeste 13 Nordeste 0 -- -- 38
2019-06-19 01:00:00 21.4 5 Noroeste 15 Oeste 0 -- -- 36
2019-06-19 00:00:00 22.1 6 Oeste 12 Oeste 0 -- -- 35
2019-06-18 23:00:00 21.8 0 Calma 4 Noroeste 0 -- -- 42
2019-06-18 22:00:00 22.7 0 Calma 8 Nordeste 0 -- -- 41
2019-06-18 21:00:00 23.7 5 Nordeste 18 Nordeste 0 -- -- 39
2019-06-18 20:00:00 25.5 8 Nordeste 24 Este 0 -- -- 37
2019-06-18 19:00:00 27.4 9 Este 33 Este 0 -- -- 35
2019-06-18 18:00:00 27.4 13 Este 37 Sudeste 0 -- -- 36
2019-06-18 17:00:00 27.1 14 Este 40 Este 0 -- -- 35
2019-06-18 16:00:00 27.8 16 Este 39 Este 0 -- -- 33
2019-06-18 15:00:00 27.7 16 Este 39 Este 0 -- -- 31
2019-06-18 14:00:00 27.1 14 Este 36 Sudeste 0 -- -- 33
2019-06-18 13:00:00 25.8 14 Este 41 Nordeste 0 -- -- 32
2019-06-18 12:00:00 24.5 15 Nordeste 36 Este 0 -- -- 31
2019-06-18 11:00:00 24.8 10 Este 32 Sudeste 0 -- -- 29
2019-06-18 10:00:00 24.5 2 Este 11 Norte 0 -- -- 30
2019-06-18 09:00:00 21.6 0 Calma 8 Nordeste 0 -- -- 37
2019-06-18 08:00:00 18.4 0 Calma 9 Noroeste 0 -- -- 39
2019-06-18 07:00:00 15.3 4 Noroeste 10 Noroeste 0 -- -- 42
2019-06-18 06:00:00 16.2 0 Calma 14 Oeste 0 -- -- 40
2019-06-18 05:00:00 16.1 0 Calma 10 Oeste 0 -- -- 40
2019-06-18 04:00:00 16.9 3 Noroeste 11 Nordeste 0 -- -- 39
2019-06-18 03:00:00 17.1 3 Noroeste 10 Oeste 0 -- -- 39
2019-06-18 02:00:00 17.7 2 Noroeste 6 Noroeste 0 -- -- 38
2019-06-18 01:00:00 18.4 2 Noroeste 7 Norte 0 -- -- 37
2019-06-18 00:00:00 19 0 Calma 10 Nordeste 0 -- -- 35
2019-06-17 23:00:00 19.9 6 Nordeste 18 Nordeste 0 -- -- 33
2019-06-17 22:00:00 21.1 10 Nordeste 25 Este 0 -- -- 32
2019-06-17 21:00:00 23.3 12 Nordeste 37 Este 0 -- -- 29
2019-06-17 20:00:00 24.4 19 Nordeste 36 Este 0 -- -- 27
2019-06-17 19:00:00 26 16 Este 42 Este 0 -- -- 26
2019-06-17 18:00:00 26.5 17 Este 47 Este 0 -- -- 26
2019-06-17 17:00:00 26.5 24 Este 47 Este 0 -- -- 26
2019-06-17 16:00:00 27.5 19 Este 37 Este 0 -- -- 24
2019-06-17 15:00:00 27.4 18 Nordeste 36 Este 0 -- -- 25
2019-06-17 14:00:00 26.9 17 Nordeste 36 Este 0 -- -- 25
2019-06-17 13:00:00 26.2 17 Nordeste 35 Este 0 -- -- 27
2019-06-17 12:00:00 25.4 18 Este 33 Nordeste 0 -- -- 27
2019-06-17 11:00:00 24.8 10 Nordeste 22 Nordeste 0 -- -- 35
2019-06-17 10:00:00 23.4 2 Nordeste 10 Nordeste 0 -- -- 41
2019-06-17 09:00:00 21.1 2 Oeste 8 Noroeste 0 -- -- 45
2019-06-17 08:00:00 17.4 0 Calma 7 Noroeste 0 -- -- 54
2019-06-17 07:00:00 15.1 0 Calma 9 Noroeste 0 -- -- 59
2019-06-17 06:00:00 15.6 0 Calma 13 Oeste 0 -- -- 61
2019-06-17 05:00:00 14.4 4 Noroeste 9 Noroeste 0 -- -- 67
2019-06-17 04:00:00 15.4 0 Calma 11 Oeste 0 -- -- 65
2019-06-17 03:00:00 15.3 6 Noroeste 10 Noroeste 0 -- -- 66
2019-06-17 02:00:00 16.8 0 Calma 9 Oeste 0 -- -- 63
2019-06-17 01:00:00 17.4 0 Calma 6 Norte 0 -- -- 58
2019-06-17 00:00:00 17.8 2 Nordeste 10 Nordeste 0 -- -- 60
2019-06-16 23:00:00 18.4 6 Nordeste 19 Este 0 -- -- 57
2019-06-16 22:00:00 19.4 10 Este 28 Este 0 -- -- 53
2019-06-16 21:00:00 20.8 14 Nordeste 30 Nordeste 0 -- -- 47
2019-06-16 20:00:00 22.4 12 Nordeste 31 Este 0 -- -- 39
2019-06-16 19:00:00 24.5 15 Nordeste 34 Este 0 -- -- 30
2019-06-16 18:00:00 25.3 15 Nordeste 31 Este 0 -- -- 27
2019-06-16 17:00:00 25 16 Nordeste 29 Este 0 -- -- 27
2019-06-16 16:00:00 24.3 15 Nordeste 35 Este 0 -- -- 27
2019-06-16 15:00:00 24.3 15 Este 30 Este 0 -- -- 28
2019-06-16 14:00:00 22.5 12 Nordeste 30 Nordeste 0 -- -- 28
2019-06-16 13:00:00 23.3 15 Nordeste 33 Nordeste 0 -- -- 27
2019-06-16 12:00:00 23.3 14 Nordeste 31 Nordeste 0 -- -- 27
2019-06-16 11:00:00 22.9 16 Nordeste 33 Este 0 -- -- 30
2019-06-16 10:00:00 20.6 13 Este 26 Este 0 -- -- 36
2019-06-16 09:00:00 18.9 8 Nordeste 18 Este 0 -- -- 42
2019-06-16 08:00:00 17.6 0 Calma 6 Nordeste 0 -- -- 46
2019-06-16 07:00:00 14.9 0 Calma 5 Oeste 0 -- -- 51
2019-06-16 06:00:00 15.9 3 Norte 9 Noroeste 0 -- -- 46
2019-06-16 05:00:00 15.1 0 Calma 6 Noroeste 0 -- -- 47
2019-06-16 04:00:00 17.5 3 Oeste 9 Oeste 0 -- -- 42
2019-06-16 03:00:00 17.8 3 Noroeste 9 Noroeste 0 -- -- 40
2019-06-16 02:00:00 18.3 0 Calma 6 Nordeste 0 -- -- 39
2019-06-16 01:00:00 19.1 3 Norte 11 Norte 0 -- -- 36
2019-06-16 00:00:00 20.2 4 Oeste 11 Oeste 0 -- -- 36
2019-06-15 23:00:00 20.4 2 Noroeste 7 Oeste 0 -- -- 35
2019-06-15 22:00:00 21.2 3 Nordeste 18 Este 0 -- -- 33
2019-06-15 21:00:00 22.4 9 Nordeste 24 Este 0 -- -- 33
2019-06-15 20:00:00 23.7 12 Este 27 Este 0 -- -- 30
2019-06-15 19:00:00 25.6 14 Nordeste 31 Este 0 -- -- 27
2019-06-15 18:00:00 25.9 16 Nordeste 37 Este 0 -- -- 27
2019-06-15 17:00:00 26 16 Nordeste 33 Nordeste 0 -- -- 27
2019-06-15 16:00:00 25.8 17 Nordeste 35 Este 0 -- -- 27
2019-06-15 15:00:00 25.8 16 Nordeste 42 Nordeste 0 -- -- 26
2019-06-15 14:00:00 26.5 15 Nordeste 34 Este 0 -- -- 25
2019-06-15 13:00:00 26.8 8 Nordeste 23 Nordeste 0 -- -- 24
2019-06-15 12:00:00 24.5 6 Norte 16 Noroeste 0 -- -- 28
2019-06-15 11:00:00 23.6 5 Norte 13 Noroeste 0 -- -- 34
2019-06-15 10:00:00 20.4 6 Noroeste 17 Noroeste 0 -- -- 39
2019-06-15 09:00:00 17 7 Norte 17 Norte 0 -- -- 43
2019-06-15 08:00:00 14.9 8 Noroeste 18 Norte 0 -- -- 46
2019-06-15 07:00:00 12.8 6 Norte 18 Noroeste 0 -- -- 45
2019-06-15 06:00:00 14.5 6 Noroeste 17 Norte 0 -- -- 42
2019-06-15 05:00:00 15.1 6 Noroeste 18 Noroeste 0 -- -- 41
2019-06-15 04:00:00 15.5 8 Norte 27 Norte 0 -- -- 39
2019-06-15 03:00:00 16.5 9 Norte 27 Noroeste 0 -- -- 37
2019-06-15 02:00:00 17.2 9 Noroeste 23 Noroeste 0 -- -- 37
2019-06-15 01:00:00 17.8 10 Noroeste 25 Noroeste 0 -- -- 35
2019-06-15 00:00:00 19 9 Noroeste 23 Noroeste 0 -- -- 32
2019-06-14 23:00:00 20.1 9 Norte 22 Noroeste 0 -- -- 31
2019-06-14 22:00:00 21.4 7 Noroeste 25 Noroeste 0 -- -- 27
2019-06-14 21:00:00 23.5 11 Noroeste 26 Norte 0 -- -- 24
2019-06-14 20:00:00 25.5 8 Noroeste 19 Norte 0 -- -- 20
2019-06-14 19:00:00 27.4 7 Nordeste 27 Este 0 -- -- 21
2019-06-14 18:00:00 27.9 10 Nordeste 26 Nordeste 0 -- -- 22
2019-06-14 17:00:00 29.4 4 Nordeste 19 Nordeste 0 -- -- 22
2019-06-14 16:00:00 28.5 4 Norte 13 Norte 0 -- -- 24
2019-06-14 15:00:00 28.4 3 Norte 13 Noroeste 0 -- -- 27
2019-06-14 14:00:00 25.7 9 Noroeste 15 Noroeste 0 -- -- 31
2019-06-14 13:00:00 24.6 5 Norte 15 Noroeste 0 -- -- 34
2019-06-14 12:00:00 23.4 4 Norte 14 Noroeste 0 -- -- 38
2019-06-14 11:00:00 23.1 3 Norte 16 Norte 0 -- -- 42
2019-06-14 10:00:00 21.2 6 Norte 18 Noroeste 0 -- -- 45
2019-06-14 09:00:00 19.5 7 Noroeste 17 Noroeste 0 -- -- 48
2019-06-14 08:00:00 17.9 7 Noroeste 17 Noroeste 0 -- -- 59
2019-06-14 07:00:00 16.4 6 Noroeste 18 Norte 0 -- -- 68
2019-06-14 06:00:00 17.1 4 Norte 15 Norte 0 -- -- 67
2019-06-14 05:00:00 17.1 4 Noroeste 24 Norte 0.1 -- -- 72
2019-06-14 04:00:00 16.4 5 Noroeste 18 Norte 1.9 -- -- 92
2019-06-14 03:00:00 16.3 0 Calma 12 Nordeste 0.2 -- -- 93
2019-06-14 02:00:00 16 7 Nordeste 20 Este 0 -- -- 92
2019-06-14 01:00:00 16.6 11 Este 21 Este 0 -- -- 88
2019-06-14 00:00:00 17 6 Este 19 Este 0 -- -- 84
2019-06-13 23:00:00 17.6 8 Nordeste 25 Este 0 -- -- 82
2019-06-13 22:00:00 17.5 11 Nordeste 28 Este 0 -- -- 79
2019-06-13 21:00:00 19.1 15 Este 33 Este 0 -- -- 67
2019-06-13 20:00:00 20.7 13 Nordeste 33 Este 0 -- -- 60
2019-06-13 19:00:00 23.1 14 Nordeste 34 Este 0 -- -- 51
2019-06-13 18:00:00 23.4 15 Nordeste 37 Nordeste 0 -- -- 49
2019-06-13 17:00:00 23.4 15 Nordeste 36 Este 0 -- -- 46
2019-06-13 16:00:00 25.3 15 Nordeste 39 Este 0 -- -- 40
2019-06-13 15:00:00 25.6 16 Nordeste 39 Nordeste 0 -- -- 34
2019-06-13 14:00:00 25 17 Nordeste 37 Nordeste 0 -- -- 35
2019-06-13 13:00:00 23.4 18 Nordeste 37 Este 0 -- -- 38
2019-06-13 12:00:00 20.9 15 Nordeste 33 Este 0 -- -- 45
2019-06-13 11:00:00 19.8 18 Nordeste 31 Este 0 -- -- 47
2019-06-13 10:00:00 18.4 13 Nordeste 30 Este 0 -- -- 55
2019-06-13 09:00:00 16.1 8 Nordeste 18 Este 0 -- -- 73
2019-06-13 08:00:00 14.1 6 Nordeste 15 Nordeste 0 -- -- 88
2019-06-13 07:00:00 13.5 0 Calma 6 Norte 0 -- -- 87
2019-06-13 06:00:00 13.7 0 Calma 6 Oeste 0 -- -- 87
2019-06-13 05:00:00 14.1 0 Calma 8 Norte 0 -- -- 86
2019-06-13 04:00:00 14 0 Calma 13 Este 0 -- -- 86
2019-06-13 03:00:00 14.8 11 Nordeste 23 Nordeste 0 -- -- 82
2019-06-13 02:00:00 15.2 5 Nordeste 18 Este 0 -- -- 81
2019-06-13 01:00:00 14.7 6 Este 20 Este 0 -- -- 86
2019-06-13 00:00:00 14.7 8 Nordeste 22 Este 0 -- -- 87
2019-06-12 23:00:00 15.5 10 Nordeste 31 Nordeste 0 -- -- 81
2019-06-12 22:00:00 16.9 11 Nordeste 30 Este 0 -- -- 69
2019-06-12 21:00:00 19 10 Nordeste 29 Este 0 -- -- 53
2019-06-12 20:00:00 20.4 14 Este 33 Este 0 -- -- 48
2019-06-12 19:00:00 21.5 17 Nordeste 37 Nordeste 0 -- -- 45
2019-06-12 18:00:00 21.9 17 Nordeste 38 Este 0 -- -- 44
2019-06-12 17:00:00 22.8 17 Nordeste 33 Este 0 -- -- 42
2019-06-12 16:00:00 23.4 15 Nordeste 33 Nordeste 0 -- -- 38
2019-06-12 15:00:00 23.8 13 Nordeste 31 Este 0 -- -- 38
2019-06-12 14:00:00 22.1 16 Nordeste 31 Este 0 -- -- 41
2019-06-12 13:00:00 20.7 15 Nordeste 29 Nordeste 0 -- -- 44
2019-06-12 12:00:00 19.1 16 Nordeste 29 Este 0 -- -- 48
2019-06-12 11:00:00 18.2 14 Nordeste 29 Nordeste 0 -- -- 50
2019-06-12 10:00:00 16.9 12 Nordeste 27 Este 0 -- -- 56
2019-06-12 09:00:00 14.2 15 Nordeste 37 Nordeste 0 -- -- 64
2019-06-12 08:00:00 13.7 15 Nordeste 35 Nordeste 0 -- -- 70
2019-06-12 07:00:00 13.5 15 Nordeste 30 Nordeste 0 -- -- 88
2019-06-12 06:00:00 14.3 12 Nordeste 29 Este 0 -- -- 84
2019-06-12 05:00:00 14.1 13 Nordeste 30 Nordeste 0 -- -- 86
2019-06-12 04:00:00 14.6 13 Nordeste 28 Este 0 -- -- 83
2019-06-12 03:00:00 15.3 10 Nordeste 25 Este 0 -- -- 84
2019-06-12 02:00:00 15.3 12 Nordeste 27 Este 0 -- -- 84
2019-06-12 01:00:00 15.8 13 Nordeste 35 Este 0 -- -- 76
2019-06-12 00:00:00 16.1 14 Nordeste 29 Nordeste 0 -- -- 64
2019-06-11 23:00:00 21.5 5 Norte 15 Noroeste 0 -- -- 32
2019-06-11 22:00:00 22.6 8 Noroeste 19 Norte 0 -- -- 31
2019-06-11 21:00:00 24 8 Noroeste 16 Noroeste 0 -- -- 30
2019-06-11 20:00:00 24.6 3 Norte 16 Norte 0 -- -- 29
2019-06-11 19:00:00 26.5 5 Norte 19 Noroeste 0 -- -- 25
2019-06-11 18:00:00 29.2 8 Norte 21 Noroeste 0 -- -- 24
2019-06-11 17:00:00 28.5 5 Norte 25 Noroeste 0 -- -- 24
2019-06-11 16:00:00 27.9 8 Norte 24 Noroeste 0 -- -- 24
2019-06-11 15:00:00 29 5 Noroeste 22 Norte 0 -- -- 23
2019-06-11 14:00:00 29.1 5 Norte 18 Norte 0 -- -- 25
2019-06-11 13:00:00 27.4 6 Norte 20 Noroeste 0 -- -- 26
2019-06-11 12:00:00 25.5 7 Noroeste 20 Noroeste 0 -- -- 27
2019-06-11 11:00:00 24.9 7 Norte 16 Norte 0 -- -- 29
2019-06-11 10:00:00 22.5 7 Norte 21 Noroeste 0 -- -- 32
2019-06-11 09:00:00 21.2 5 Norte 16 Noroeste 0 -- -- 36
2019-06-11 08:00:00 17.9 6 Noroeste 23 Norte 0 -- -- 38
2019-06-11 07:00:00 16.2 7 Noroeste 16 Noroeste 0 -- -- 38
2019-06-11 06:00:00 16.9 5 Norte 16 Norte 0 -- -- 36
2019-06-11 05:00:00 17.2 5 Norte 17 Norte 0 -- -- 35
2019-06-11 04:00:00 17.6 9 Noroeste 18 Noroeste 0 -- -- 35
2019-06-11 03:00:00 18.2 5 Norte 14 Noroeste 0 -- -- 34
2019-06-11 02:00:00 18.5 4 Noroeste 15 Noroeste 0 -- -- 32
2019-06-11 01:00:00 18.9 5 Noroeste 13 Oeste 0 -- -- 32
2019-06-11 00:00:00 19.8 3 Noroeste 17 Norte 0 -- -- 31
2019-06-10 23:00:00 21.2 5 Norte 17 Noroeste 0 -- -- 29
2019-06-10 22:00:00 21.5 0 Calma 13 Nordeste 0 -- -- 31
2019-06-10 21:00:00 22.6 6 Nordeste 24 Nordeste 0 -- -- 30
2019-06-10 20:00:00 23.3 11 Nordeste 26 Este 0 -- -- 28
2019-06-10 19:00:00 25.2 14 Este 28 Este 0 -- -- 27
2019-06-10 18:00:00 25.6 12 Nordeste 33 Este 0 -- -- 28
2019-06-10 17:00:00 25.7 16 Este 29 Este 0 -- -- 27
2019-06-10 16:00:00 26.4 13 Nordeste 27 Nordeste 0 -- -- 27
2019-06-10 15:00:00 27.3 11 Nordeste 27 Este 0 -- -- 26
2019-06-10 14:00:00 25.8 6 Nordeste 17 Nordeste 0 -- -- 25
2019-06-10 13:00:00 25.4 2 Norte 12 Nordeste 0 -- -- 24
2019-06-10 12:00:00 24.8 3 Nordeste 22 Norte 0 -- -- 29
2019-06-10 11:00:00 23 8 Norte 22 Norte 0 -- -- 32
2019-06-10 10:00:00 21.8 11 Noroeste 19 Norte 0 -- -- 35
2019-06-10 09:00:00 20.4 5 Norte 15 Noroeste 0 -- -- 39
2019-06-10 08:00:00 17.4 8 Noroeste 16 Norte 0 -- -- 42
2019-06-10 07:00:00 15.4 5 Norte 17 Noroeste 0 -- -- 42
2019-06-10 06:00:00 16.2 4 Noroeste 14 Noroeste 0 -- -- 42
2019-06-10 05:00:00 17 8 Noroeste 23 Norte 0 -- -- 41
2019-06-10 04:00:00 17.6 10 Noroeste 22 Noroeste 0 -- -- 40
2019-06-10 03:00:00 18.2 9 Noroeste 19 Noroeste 0 -- -- 40
2019-06-10 02:00:00 18.6 8 Noroeste 17 Norte 0 -- -- 38
2019-06-10 01:00:00 19.5 4 Norte 15 Norte 0 -- -- 37
2019-06-10 00:00:00 20.1 4 Norte 18 Noroeste 0 -- -- 38
2019-06-09 23:00:00 21.1 8 Noroeste 24 Noroeste 0 -- -- 38
2019-06-09 22:00:00 22.6 8 Noroeste 19 Noroeste 0 -- -- 39
2019-06-09 21:00:00 22.2 3 Nordeste 17 Nordeste 0 -- -- 52
2019-06-09 20:00:00 22.5 9 Nordeste 22 Nordeste 0 -- -- 53
2019-06-09 19:00:00 24.8 8 Nordeste 25 Este 0 -- -- 46
2019-06-09 18:00:00 25.3 12 Nordeste 30 Nordeste 0 -- -- 45
2019-06-09 17:00:00 25.1 13 Nordeste 29 Nordeste 0 -- -- 41
2019-06-09 16:00:00 26.3 13 Nordeste 24 Este 0 -- -- 37
2019-06-09 15:00:00 25.9 10 Nordeste 26 Este 0 -- -- 38
2019-06-09 14:00:00 25.5 11 Nordeste 26 Este 0 -- -- 36
2019-06-09 13:00:00 26.1 2 Norte 13 Noroeste 0 -- -- 34
2019-06-09 12:00:00 24.2 4 Norte 16 Norte 0 -- -- 36
2019-06-09 11:00:00 22.1 5 Noroeste 18 Noroeste 0 -- -- 44
2019-06-09 10:00:00 19.6 7 Noroeste 17 Noroeste 0 -- -- 53
2019-06-09 09:00:00 19.4 0 Calma 8 Nordeste 0 -- -- 61
2019-06-09 08:00:00 17.9 0 Calma 9 Noroeste 0 -- -- 72
2019-06-09 07:00:00 15.7 3 Noroeste 13 Noroeste 0 -- -- 82
2019-06-09 06:00:00 15.8 2 Noroeste 13 Norte 0 -- -- 82
2019-06-09 05:00:00 16.3 0 Calma 5 Nordeste 0 -- -- 84
2019-06-09 04:00:00 16 0 Calma 7 Este 0 -- -- 86
2019-06-09 03:00:00 15.9 3 Nordeste 10 Nordeste 0 -- -- 91
2019-06-09 02:00:00 15.9 0 Calma 10 Nordeste 0 -- -- 90
2019-06-09 01:00:00 16.3 0 Calma 10 Este 0 -- -- 87
2019-06-09 00:00:00 16.6 5 Nordeste 13 Este 0 -- -- 86
2019-06-08 23:00:00 17.5 7 Este 23 Este 0 -- -- 81
2019-06-08 22:00:00 18.3 12 Este 26 Nordeste 0 -- -- 74
2019-06-08 21:00:00 19.5 16 Este 32 Este 0 -- -- 65
2019-06-08 20:00:00 21.4 17 Este 42 Nordeste 0 -- -- 54
2019-06-08 19:00:00 23.3 18 Este 42 Nordeste 0 -- -- 46
2019-06-08 18:00:00 24.7 18 Nordeste 39 Este 0 -- -- 44
2019-06-08 17:00:00 25.1 17 Nordeste 40 Nordeste 0 -- -- 42
2019-06-08 16:00:00 25.4 19 Nordeste 39 Este 0 -- -- 39
2019-06-08 15:00:00 25.4 17 Nordeste 39 Este 0 -- -- 36
2019-06-08 14:00:00 24.6 17 Nordeste 45 Norte 0 -- -- 35
2019-06-08 13:00:00 24.7 15 Nordeste 36 Este 0 -- -- 35
2019-06-08 12:00:00 23 18 Nordeste 41 Este 0 -- -- 35
2019-06-08 11:00:00 22.1 19 Nordeste 38 Nordeste 0 -- -- 36
2019-06-08 10:00:00 21.5 20 Nordeste 46 Nordeste 0 -- -- 38
2019-06-08 09:00:00 20.7 17 Nordeste 33 Nordeste 0 -- -- 40
2019-06-08 08:00:00 17.3 4 Nordeste 15 Nordeste 0 -- -- 53
2019-06-08 07:00:00 15.4 0 Calma 9 Noroeste 0 -- -- 58
2019-06-08 06:00:00 15.3 2 Nordeste 12 Nordeste 0 -- -- 60
2019-06-08 05:00:00 15.4 5 Nordeste 16 Nordeste 0 -- -- 59
2019-06-08 04:00:00 16.3 6 Nordeste 17 Nordeste 0 -- -- 59
2019-06-08 03:00:00 16.7 6 Nordeste 13 Este 0 -- -- 56
2019-06-08 02:00:00 17.6 2 Norte 9 Nordeste 0 -- -- 49
2019-06-08 01:00:00 19 3 Noroeste 9 Noroeste 0 -- -- 47
2019-06-08 00:00:00 19.7 2 Noroeste 10 Noroeste 0 -- -- 47
2019-06-07 23:00:00 20.3 0 Calma 12 Nordeste 0 -- -- 48
2019-06-07 22:00:00 20.8 7 Nordeste 21 Este 0 -- -- 45
2019-06-07 21:00:00 22.5 11 Nordeste 25 Nordeste 0 -- -- 40
2019-06-07 20:00:00 24 11 Nordeste 28 Nordeste 0 -- -- 37
2019-06-07 19:00:00 25.6 14 Nordeste 31 Nordeste 0 -- -- 36
2019-06-07 18:00:00 25.8 14 Este 29 Este 0 -- -- 36
2019-06-07 17:00:00 26.4 12 Nordeste 30 Este 0 -- -- 35
2019-06-07 16:00:00 26.2 13 Nordeste 29 Nordeste 0 -- -- 35
2019-06-07 15:00:00 26.1 13 Nordeste 28 Nordeste 0 -- -- 35
2019-06-07 14:00:00 25.9 5 Norte 19 Norte 0 -- -- 34
2019-06-07 13:00:00 25.3 5 Norte 19 Noroeste 0 -- -- 38
2019-06-07 12:00:00 23.1 9 Noroeste 22 Noroeste 0 -- -- 40
2019-06-07 11:00:00 21.6 10 Norte 27 Noroeste 0 -- -- 42
2019-06-07 10:00:00 19.2 9 Noroeste 25 Noroeste 0 -- -- 44
2019-06-07 09:00:00 16.8 11 Noroeste 30 Noroeste 0 -- -- 44
2019-06-07 08:00:00 16.5 8 Noroeste 21 Norte 0 -- -- 41
2019-06-07 07:00:00 15 8 Noroeste 18 Norte 0 -- -- 41
2019-06-07 06:00:00 15.1 5 Norte 26 Noroeste 0 -- -- 39
2019-06-07 05:00:00 15.8 3 Norte 25 Norte 0 -- -- 39
2019-06-07 04:00:00 16.5 8 Noroeste 21 Oeste 0 -- -- 39
2019-06-07 03:00:00 16.6 0 Calma 9 Noroeste 0 -- -- 38
2019-06-07 02:00:00 17.4 0 Calma 10 Noroeste 0 -- -- 36
2019-06-07 01:00:00 17.6 0 Calma 12 Oeste 0 -- -- 35
2019-06-07 00:00:00 19.7 4 Noroeste 15 Oeste 0 -- -- 32
2019-06-06 23:00:00 18.3 4 Noroeste 9 Oeste 0 -- -- 35
2019-06-06 22:00:00 19.7 0 Calma 18 Nordeste 0 -- -- 35
2019-06-06 21:00:00 20.7 9 Este 27 Nordeste 0 -- -- 34
2019-06-06 20:00:00 21.6 12 Nordeste 36 Este 0 -- -- 33
2019-06-06 19:00:00 23.7 16 Nordeste 41 Este 0 -- -- 32
2019-06-06 18:00:00 24.5 15 Nordeste 32 Nordeste 0 -- -- 32
2019-06-06 17:00:00 23.8 16 Nordeste 39 Este 0 -- -- 32
2019-06-06 16:00:00 24.2 20 Este 44 Este 0 -- -- 33
2019-06-06 15:00:00 24.2 22 Nordeste 44 Nordeste 0 -- -- 31
2019-06-06 14:00:00 24.3 20 Nordeste 39 Este 0 -- -- 29
2019-06-06 13:00:00 24.1 15 Nordeste 38 Nordeste 0 -- -- 29
2019-06-06 12:00:00 22.2 17 Nordeste 31 Este 0 -- -- 31
2019-06-06 11:00:00 21.8 15 Nordeste 30 Este 0 -- -- 32
2019-06-06 10:00:00 20.1 9 Nordeste 22 Nordeste 0 -- -- 35
2019-06-06 09:00:00 18.2 0 Calma 10 Norte 0 -- -- 38
2019-06-06 08:00:00 16 3 Norte 11 Norte 0 -- -- 41
2019-06-06 07:00:00 13.1 5 Noroeste 14 Norte 0 -- -- 42
2019-06-06 06:00:00 13.7 4 Norte 13 Noroeste 0 -- -- 42
2019-06-06 05:00:00 14 4 Norte 12 Noroeste 0 -- -- 41
2019-06-06 04:00:00 14.1 4 Norte 13 Noroeste 0 -- -- 40
2019-06-06 03:00:00 14.9 4 Norte 15 Noroeste 0 -- -- 39
2019-06-06 02:00:00 15.2 6 Noroeste 12 Noroeste 0 -- -- 38
2019-06-06 01:00:00 16.1 3 Noroeste 16 Oeste 0 -- -- 35
2019-06-06 00:00:00 17.5 4 Norte 14 Noroeste 0 -- -- 33
2019-06-05 23:00:00 18.7 5 Noroeste 15 Noroeste 0 -- -- 32
2019-06-05 22:00:00 19.1 8 Noroeste 18 Norte 0 -- -- 31
2019-06-05 21:00:00 20.1 8 Noroeste 18 Noroeste 0 -- -- 30
2019-06-05 20:00:00 21.8 9 Noroeste 22 Noroeste 0 -- -- 27
2019-06-05 19:00:00 22.5 8 Noroeste 18 Norte 0 -- -- 25
2019-06-05 18:00:00 23 9 Norte 28 Noroeste 0 -- -- 23
2019-06-05 17:00:00 24.7 9 Noroeste 24 Norte 0 -- -- 23
2019-06-05 16:00:00 23.9 6 Norte 25 Este 0 -- -- 24
2019-06-05 15:00:00 24.6 8 Norte 27 Norte 0 -- -- 25
2019-06-05 14:00:00 22.8 8 Norte 24 Noroeste 0 -- -- 26
2019-06-05 13:00:00 22.8 12 Noroeste 30 Norte 0 -- -- 28
2019-06-05 12:00:00 22.7 12 Noroeste 28 Norte 0 -- -- 33
2019-06-05 11:00:00 19.8 14 Noroeste 27 Noroeste 0 -- -- 42
2019-06-05 10:00:00 19.3 14 Norte 28 Noroeste 0 -- -- 46
2019-06-05 09:00:00 17.8 12 Noroeste 28 Noroeste 0 -- -- 51
2019-06-05 08:00:00 18 8 Noroeste 28 Noroeste 0 -- -- 59
2019-06-05 07:00:00 16.6 12 Noroeste 21 Noroeste 0 -- -- 67
2019-06-05 06:00:00 17 9 Noroeste 17 Noroeste 0 -- -- 65
2019-06-05 05:00:00 17.3 3 Noroeste 17 Noroeste 0 -- -- 63
2019-06-05 04:00:00 18.1 10 Noroeste 22 Noroeste 0 -- -- 54
2019-06-05 03:00:00 19.5 5 Noroeste 22 Norte 0 -- -- 49
2019-06-05 02:00:00 20.8 5 Noroeste 18 Norte 0 -- -- 45
2019-06-05 01:00:00 21.9 3 Noroeste 14 Noroeste 0 -- -- 40
2019-06-05 00:00:00 22.4 0 Calma 7 Noroeste 0 -- -- 37
2019-06-04 23:00:00 23.9 0 Calma 12 Noroeste 0 -- -- 34
2019-06-04 22:00:00 25.4 6 Noroeste 16 Noroeste 0 -- -- 31
2019-06-04 21:00:00 27.2 6 Noroeste 17 Noroeste 0 -- -- 27
2019-06-04 20:00:00 29 4 Norte 16 Nordeste 0 -- -- 27
2019-06-04 19:00:00 29.4 10 Nordeste 26 Este 0 -- -- 31
2019-06-04 18:00:00 28.4 11 Nordeste 32 Nordeste 0 -- -- 34
2019-06-04 17:00:00 29.7 13 Nordeste 26 Nordeste 0 -- -- 34
2019-06-04 16:00:00 28.6 12 Nordeste 30 Este 0 -- -- 34
2019-06-04 15:00:00 30.1 11 Nordeste 26 Nordeste 0 -- -- 31
2019-06-04 14:00:00 29.1 10 Nordeste 31 Este 0 -- -- 28
2019-06-04 13:00:00 29.3 10 Nordeste 23 Este 0 -- -- 25
2019-06-04 12:00:00 28.8 11 Nordeste 22 Nordeste 0 -- -- 26
2019-06-04 11:00:00 27.4 0 Calma 11 Norte 0 -- -- 27
2019-06-04 10:00:00 26.7 2 Nordeste 11 Norte 0 -- -- 30
2019-06-04 09:00:00 23.9 3 Noroeste 10 Noroeste 0 -- -- 32
2019-06-04 08:00:00 20.7 3 Norte 13 Noroeste 0 -- -- 33
2019-06-04 07:00:00 18.6 5 Noroeste 15 Noroeste 0 -- -- 34
2019-06-04 06:00:00 19.4 3 Noroeste 13 Oeste 0 -- -- 34
2019-06-04 05:00:00 19.5 2 Noroeste 13 Oeste 0 -- -- 35
2019-06-04 04:00:00 18.7 0 Calma 9 Noroeste 0 -- -- 37
2019-06-04 03:00:00 18.9 0 Calma 12 Nordeste 0 -- -- 37
2019-06-04 02:00:00 19.2 0 Calma 9 Noroeste 0 -- -- 35
2019-06-04 01:00:00 20 3 Noroeste 9 Noroeste 0 -- -- 35
2019-06-04 00:00:00 20.9 0 Calma 9 Noroeste 0 -- -- 34
2019-06-03 23:00:00 21.7 2 Noroeste 12 Nordeste 0 -- -- 33
2019-06-03 22:00:00 22.5 6 Nordeste 30 Este 0 -- -- 31
2019-06-03 21:00:00 24 18 Este 39 Este 0 -- -- 30
2019-06-03 20:00:00 24.9 19 Este 40 Este 0 -- -- 31
2019-06-03 19:00:00 26.6 18 Este 36 Este 0 -- -- 31
2019-06-03 18:00:00 26.5 19 Este 36 Este 0 -- -- 31
2019-06-03 17:00:00 26.1 19 Nordeste 37 Nordeste 0 -- -- 30
2019-06-03 16:00:00 27.1 16 Nordeste 35 Este 0 -- -- 28
2019-06-03 15:00:00 28.3 18 Nordeste 35 Nordeste 0 -- -- 27
2019-06-03 14:00:00 28.9 14 Nordeste 34 Norte 0 -- -- 27
2019-06-03 13:00:00 27.1 14 Nordeste 28 Nordeste 0 -- -- 27
2019-06-03 12:00:00 26.3 12 Este 22 Este 0 -- -- 29
2019-06-03 11:00:00 25.6 10 Este 18 Este 0 -- -- 30
2019-06-03 10:00:00 24.4 3 Este 7 Este 0 -- -- 31
2019-06-03 09:00:00 22.4 0 Calma 2 Este 0 -- -- 35
2019-06-03 08:00:00 20.5 0 Calma 10 Oeste 0 -- -- 35
2019-06-03 07:00:00 18.5 0 Calma 11 Noroeste 0 -- -- 37
2019-06-03 06:00:00 17 0 Calma 9 Noroeste 0 -- -- 39
2019-06-03 05:00:00 17.1 7 Noroeste 12 Noroeste 0 -- -- 41
2019-06-03 04:00:00 15.9 0 Calma 6 Oeste 0 -- -- 42
2019-06-03 03:00:00 16.3 0 Calma 6 Noroeste 0 -- -- 40
2019-06-03 02:00:00 17.7 0 Calma 10 Oeste 0 -- -- 38
2019-06-03 01:00:00 18 0 Calma 6 Oeste 0 -- -- 37
2019-06-03 00:00:00 19.2 0 Calma 9 Norte 0 -- -- 35
2019-06-02 23:00:00 19.8 5 Norte 8 Norte 0 -- -- 35
2019-06-02 22:00:00 20.8 4 Nordeste 20 Este 0 -- -- 33
2019-06-02 21:00:00 22.7 12 Nordeste 24 Este 0 -- -- 31
2019-06-02 20:00:00 23.6 14 Nordeste 32 Nordeste 0 -- -- 28
2019-06-02 19:00:00 25.4 16 Nordeste 30 Nordeste 0 -- -- 27
2019-06-02 18:00:00 26.7 15 Nordeste 37 Nordeste 0 -- -- 26
2019-06-02 17:00:00 26.9 14 Nordeste 30 Nordeste 0 -- -- 26
2019-06-02 16:00:00 28 13 Nordeste 33 Este 0 -- -- 25
2019-06-02 15:00:00 27.5 15 Nordeste 31 Este 0 -- -- 25
2019-06-02 14:00:00 26.9 12 Nordeste 32 Este 0 -- -- 26
2019-06-02 13:00:00 25.1 14 Nordeste 30 Este 0 -- -- 26
2019-06-02 12:00:00 25 11 Nordeste 23 Este 0 -- -- 22
2019-06-02 11:00:00 23.9 10 Nordeste 21 Este 0 -- -- 30
2019-06-02 10:00:00 21.4 4 Nordeste 12 Este 0 -- -- 38
2019-06-02 09:00:00 17.9 0 Calma 4 Nordeste 0 -- -- 43
2019-06-02 08:00:00 14 0 Calma 7 Noroeste 0 -- -- 45
2019-06-02 07:00:00 12.2 0 Calma 8 Oeste 0 -- -- 51
2019-06-02 06:00:00 12.5 0 Calma 9 Oeste 0 -- -- 50
2019-06-02 05:00:00 12.5 0 Calma 4 Este 0 -- -- 49
2019-06-02 04:00:00 13.2 0 Calma 5 Noroeste 0 -- -- 48
2019-06-02 03:00:00 14.2 0 Calma 10 Oeste 0 -- -- 45
2019-06-02 02:00:00 15 0 Calma 4 Noroeste 0 -- -- 46
2019-06-02 01:00:00 15.7 0 Calma 7 Noroeste 0 -- -- 45
2019-06-02 00:00:00 16.5 0 Calma 8 Nordeste 0 -- -- 42
2019-06-01 23:00:00 17.5 3 Nordeste 10 Nordeste 0 -- -- 40
2019-06-01 22:00:00 18.7 6 Nordeste 26 Este 0 -- -- 38
2019-06-01 21:00:00 20.2 15 Este 28 Este 0 -- -- 34
2019-06-01 20:00:00 21.9 12 Nordeste 30 Este 0 -- -- 31
2019-06-01 19:00:00 23.9 17 Este 31 Este 0 -- -- 28
2019-06-01 18:00:00 25.3 15 Nordeste 31 Nordeste 0 -- -- 27
2019-06-01 17:00:00 25.7 14 Nordeste 33 Nordeste 0 -- -- 27
2019-06-01 16:00:00 25.4 17 Este 31 Este 0 -- -- 26
2019-06-01 15:00:00 25.7 14 Nordeste 34 Este 0 -- -- 27
2019-06-01 14:00:00 24.3 17 Nordeste 32 Este 0 -- -- 27
2019-06-01 13:00:00 24.1 16 Nordeste 31 Este 0 -- -- 31
2019-06-01 12:00:00 23 16 Nordeste 30 Este 0 -- -- 36
2019-06-01 11:00:00 21.5 10 Nordeste 26 Norte 0 -- -- 41
2019-06-01 10:00:00 19 10 Este 19 Este 0 -- -- 47
2019-06-01 09:00:00 17.7 4 Nordeste 11 Este 0 -- -- 51
2019-06-01 08:00:00 14.4 0 Calma 3 Norte 0 -- -- 54
2019-06-01 07:00:00 11.9 0 Calma 0 Calma 0 -- -- 61
2019-06-01 06:00:00 12.6 0 Calma 3 Noroeste 0 -- -- 56
2019-06-01 05:00:00 13.1 0 Calma 0 Calma 0 -- -- 53
2019-06-01 04:00:00 12.8 0 Calma 5 Oeste 0 -- -- 55
2019-06-01 03:00:00 14.4 0 Calma 8 Oeste 0 -- -- 55
2019-06-01 02:00:00 14.6 0 Calma 7 Noroeste 0 -- -- 49
2019-06-01 01:00:00 16.3 2 Noroeste 8 Noroeste 0 -- -- 45
2019-06-01 00:00:00 17 0 Calma 8 Nordeste 0 -- -- 53
2019-05-31 23:00:00 17.8 3 Este 12 Este 0 -- -- 52
2019-05-31 22:00:00 19.3 4 Este 17 Este 0 -- -- 45
2019-05-31 21:00:00 21 9 Nordeste 26 Nordeste 0 -- -- 39
2019-05-31 20:00:00 22.2 11 Nordeste 27 Nordeste 0 -- -- 34
2019-05-31 19:00:00 24.1 12 Nordeste 30 Nordeste 0 -- -- 31
2019-05-31 18:00:00 24 15 Nordeste 35 Nordeste 0 -- -- 29
2019-05-31 17:00:00 24.8 14 Nordeste 33 Nordeste 0 -- -- 28
2019-05-31 16:00:00 24.1 16 Nordeste 35 Este 0 -- -- 29
2019-05-31 15:00:00 24.2 14 Nordeste 37 Nordeste 0 -- -- 29
2019-05-31 14:00:00 24.1 12 Nordeste 35 Nordeste 0 -- -- 28
2019-05-31 13:00:00 23.6 14 Norte 39 Norte 0 -- -- 29
2019-05-31 12:00:00 22.7 14 Nordeste 31 Este 0 -- -- 31
2019-05-31 11:00:00 22 12 Nordeste 30 Nordeste 0 -- -- 34
2019-05-31 10:00:00 20.5 13 Nordeste 33 Nordeste 0 -- -- 35
2019-05-31 09:00:00 17.9 4 Nordeste 11 Nordeste 0 -- -- 49
2019-05-31 08:00:00 15.7 0 Calma 3 Noroeste 0 -- -- 54
2019-05-31 07:00:00 13 0 Calma 4 Norte 0 -- -- 55
2019-05-31 06:00:00 13.5 0 Calma 6 Norte 0 -- -- 60
2019-05-31 05:00:00 13.6 0 Calma 6 Nordeste 0 -- -- 60
2019-05-31 04:00:00 14.2 0 Calma 5 Este 0 -- -- 60
2019-05-31 03:00:00 14.4 0 Calma 5 Noroeste 0 -- -- 58
2019-05-31 02:00:00 14.9 0 Calma 4 Noroeste 0 -- -- 56
2019-05-31 01:00:00 15.5 0 Calma 7 Norte 0 -- -- 57
2019-05-31 00:00:00 15.9 0 Calma 10 Este 0 -- -- 60
2019-05-30 23:00:00 16.2 3 Nordeste 13 Nordeste 0 -- -- 56
2019-05-30 22:00:00 17.6 7 Nordeste 19 Nordeste 0 -- -- 46
2019-05-30 21:00:00 19 11 Nordeste 26 Este 0 -- -- 41
2019-05-30 20:00:00 20 12 Nordeste 33 Este 0 -- -- 37
2019-05-30 19:00:00 22 15 Nordeste 31 Nordeste 0 -- -- 30
2019-05-30 18:00:00 22.9 14 Nordeste 30 Este 0 -- -- 29
2019-05-30 17:00:00 23.4 12 Nordeste 34 Este 0 -- -- 29
2019-05-30 16:00:00 22.5 17 Nordeste 36 Este 0 -- -- 31
2019-05-30 15:00:00 22.7 15 Nordeste 31 Este 0 -- -- 33
2019-05-30 14:00:00 22.4 13 Nordeste 29 Este 0 -- -- 31
2019-05-30 13:00:00 21.2 13 Nordeste 32 Este 0 -- -- 31
2019-05-30 12:00:00 19.9 14 Nordeste 32 Este 0 -- -- 34
2019-05-30 11:00:00 19.5 13 Nordeste 27 Este 0 -- -- 36
2019-05-30 10:00:00 18.2 11 Este 24 Este 0 -- -- 39
2019-05-30 09:00:00 16 0 Calma 5 Nordeste 0 -- -- 58
2019-05-30 08:00:00 12.6 0 Calma 6 Noroeste 0 -- -- 71
2019-05-30 07:00:00 11.1 0 Calma 5 Noroeste 0 -- -- 75
2019-05-30 06:00:00 11.5 0 Calma 5 Este 0 -- -- 75
2019-05-30 05:00:00 11.4 3 Nordeste 8 Nordeste 0 -- -- 71
2019-05-30 04:00:00 12.4 2 Nordeste 7 Este 0 -- -- 67
2019-05-30 03:00:00 12.6 2 Este 6 Este 0 -- -- 67
2019-05-30 02:00:00 13.4 0 Calma 8 Nordeste 0 -- -- 66
2019-05-30 01:00:00 13.9 3 Este 7 Nordeste 0 -- -- 64
2019-05-30 00:00:00 14.6 5 Este 13 Nordeste 0 -- -- 63
2019-05-29 23:00:00 15.5 4 Nordeste 16 Nordeste 0 -- -- 60
2019-05-29 22:00:00 15.9 10 Nordeste 23 Este 0 -- -- 56
2019-05-29 21:00:00 17.9 10 Nordeste 30 Nordeste 0 -- -- 51
2019-05-29 20:00:00 19.2 13 Nordeste 31 Nordeste 0 -- -- 46
2019-05-29 19:00:00 21.6 15 Nordeste 32 Este 0 -- -- 42
2019-05-29 18:00:00 22.7 15 Nordeste 33 Este 0 -- -- 40
2019-05-29 17:00:00 24 15 Nordeste 33 Este 0 -- -- 39
2019-05-29 16:00:00 24.5 16 Nordeste 35 Este 0 -- -- 36
2019-05-29 15:00:00 24.5 15 Nordeste 33 Este 0 -- -- 35
2019-05-29 14:00:00 24.2 13 Nordeste 29 Este 0 -- -- 36
2019-05-29 13:00:00 23 6 Nordeste 17 Este 0 -- -- 40
2019-05-29 12:00:00 22.7 3 Nordeste 16 Este 0 -- -- 46
2019-05-29 11:00:00 20.7 6 Nordeste 15 Este 0 -- -- 53
2019-05-29 10:00:00 19.1 6 Nordeste 17 Este 0 -- -- 60
2019-05-29 09:00:00 17.3 3 Nordeste 7 Este 0 -- -- 76
2019-05-29 08:00:00 15.5 0 Calma 7 Noroeste 0 -- -- 78
2019-05-29 07:00:00 15 0 Calma 6 Norte 0 -- -- 82
2019-05-29 06:00:00 15 0 Calma 13 Este 0 -- -- 90
2019-05-29 05:00:00 14.7 2 Nordeste 8 Este 0 -- -- 92
2019-05-29 04:00:00 15.6 0 Calma 6 Nordeste 0 -- -- 85
2019-05-29 03:00:00 17.5 0 Calma 6 Noroeste 0 -- -- 69
2019-05-29 02:00:00 18.5 0 Calma 6 Noroeste 0 -- -- 64
2019-05-29 01:00:00 18.8 0 Calma 5 Oeste 0 -- -- 62
2019-05-29 00:00:00 19.7 0 Calma 11 Nordeste 0 -- -- 66
2019-05-28 23:00:00 20.1 4 Nordeste 12 Este 0 -- -- 63
2019-05-28 22:00:00 21.3 5 Nordeste 18 Este 0 -- -- 56
2019-05-28 21:00:00 22.6 12 Este 26 Nordeste 0 -- -- 50
2019-05-28 20:00:00 23.6 14 Nordeste 30 Este 0 -- -- 45
2019-05-28 19:00:00 25.6 15 Este 33 Este 0 -- -- 41
2019-05-28 18:00:00 26.1 17 Este 38 Este 0 -- -- 39
2019-05-28 17:00:00 26.8 17 Este 37 Este 0 -- -- 38
2019-05-28 16:00:00 27.5 17 Nordeste 34 Nordeste 0 -- -- 36
2019-05-28 15:00:00 27.2 17 Nordeste 33 Este 0 -- -- 35
2019-05-28 14:00:00 27.2 15 Nordeste 34 Nordeste 0 -- -- 36
2019-05-28 13:00:00 27.3 14 Nordeste 31 Este 0 -- -- 36
2019-05-28 12:00:00 25.6 15 Nordeste 29 Sudeste 0 -- -- 38
2019-05-28 11:00:00 25.5 10 Nordeste 23 Nordeste 0 -- -- 38
2019-05-28 10:00:00 25.6 5 Nordeste 12 Este 0 -- -- 37
2019-05-28 09:00:00 25 2 Noroeste 12 Norte 0 -- -- 39
2019-05-28 08:00:00 22 4 Noroeste 13 Norte 0 -- -- 42
2019-05-28 07:00:00 19.9 4 Noroeste 13 Noroeste 0 -- -- 45
2019-05-28 06:00:00 20.3 3 Noroeste 18 Norte 0 -- -- 43
2019-05-28 05:00:00 20.9 4 Noroeste 13 Noroeste 0 -- -- 42
2019-05-28 04:00:00 20.8 5 Norte 17 Norte 0 -- -- 42
2019-05-28 03:00:00 21.6 6 Noroeste 15 Noroeste 0 -- -- 40
2019-05-28 02:00:00 21.5 6 Noroeste 14 Norte 0 -- -- 41
2019-05-28 01:00:00 20.6 2 Oeste 11 Noroeste 0 -- -- 44
2019-05-28 00:00:00 20.4 2 Oeste 11 Oeste 0 -- -- 49
2019-05-27 23:00:00 19.9 2 Oeste 10 Este 0 -- -- 49
2019-05-27 22:00:00 20.9 4 Nordeste 13 Este 0 -- -- 46
2019-05-27 21:00:00 23 2 Nordeste 21 Nordeste 0 -- -- 41
2019-05-27 20:00:00 24.8 5 Nordeste 24 Nordeste 0 -- -- 36
2019-05-27 19:00:00 26.4 8 Nordeste 30 Nordeste 0 -- -- 34
2019-05-27 18:00:00 27.5 9 Nordeste 25 Este 0 -- -- 31
2019-05-27 17:00:00 29.2 4 Norte 20 Norte 0 -- -- 23
2019-05-27 16:00:00 31 6 Norte 26 Nordeste 0 -- -- 23
2019-05-27 15:00:00 29.8 8 Norte 27 Norte 0 -- -- 24
2019-05-27 14:00:00 29.2 9 Norte 28 Noroeste 0 -- -- 25
2019-05-27 13:00:00 28.6 9 Norte 24 Norte 0 -- -- 27
2019-05-27 12:00:00 26.8 7 Noroeste 18 Norte 0 -- -- 28
2019-05-27 11:00:00 25.7 7 Norte 19 Noroeste 0 -- -- 30
2019-05-27 10:00:00 24.5 5 Norte 17 Noroeste 0 -- -- 33
2019-05-27 09:00:00 21.5 7 Noroeste 18 Noroeste 0 -- -- 35
2019-05-27 08:00:00 18.6 7 Norte 18 Noroeste 0 -- -- 38
2019-05-27 07:00:00 17.3 8 Noroeste 18 Norte 0 -- -- 38
2019-05-27 06:00:00 17.5 5 Norte 20 Norte 0 -- -- 37
2019-05-27 05:00:00 17.3 5 Noroeste 17 Noroeste 0 -- -- 37
2019-05-27 04:00:00 17.4 5 Norte 17 Norte 0 -- -- 36
2019-05-27 03:00:00 17.5 3 Norte 17 Noroeste 0 -- -- 36
2019-05-27 02:00:00 17.7 5 Noroeste 17 Noroeste 0 -- -- 38
2019-05-27 01:00:00 16.6 0 Calma 10 Oeste 0 -- -- 60
2019-05-27 00:00:00 15.8 0 Calma 2 Noroeste 0 -- -- 66
2019-05-26 23:00:00 16.1 0 Calma 4 Este 0 -- -- 66
2019-05-26 22:00:00 16.9 0 Calma 12 Este 0 -- -- 61
2019-05-26 21:00:00 18.1 8 Nordeste 20 Nordeste 0 -- -- 56
2019-05-26 20:00:00 19.1 11 Este 23 Este 0 -- -- 51
2019-05-26 19:00:00 21 13 Este 28 Nordeste 0 -- -- 46
2019-05-26 18:00:00 21.4 14 Nordeste 28 Este 0 -- -- 45
2019-05-26 17:00:00 21.9 14 Nordeste 31 Este 0 -- -- 42
2019-05-26 16:00:00 22.6 13 Nordeste 31 Nordeste 0 -- -- 42
2019-05-26 15:00:00 22.5 13 Nordeste 29 Este 0 -- -- 41
2019-05-26 14:00:00 21.5 14 Nordeste 27 Nordeste 0 -- -- 43
2019-05-26 13:00:00 21.3 7 Nordeste 18 Este 0 -- -- 42
2019-05-26 12:00:00 20.3 2 Nordeste 13 Nordeste 0 -- -- 45
2019-05-26 11:00:00 19.2 6 Este 17 Este 0 -- -- 46
2019-05-26 10:00:00 19.4 6 Nordeste 15 Nordeste 0 -- -- 49
2019-05-26 09:00:00 17.1 0 Calma 5 Noroeste 0 -- -- 64
2019-05-26 08:00:00 13.8 0 Calma 8 Oeste 0 -- -- 74
2019-05-26 07:00:00 11.9 0 Calma 10 Oeste 0 -- -- 80
2019-05-26 06:00:00 11.2 0 Calma 0 Calma 0 -- -- 83
2019-05-26 05:00:00 12.2 0 Calma 6 Noroeste 0 -- -- 81
2019-05-26 04:00:00 12.5 3 Oeste 9 Noroeste 0 -- -- 82
2019-05-26 03:00:00 13.4 0 Calma 7 Norte 0 -- -- 75
2019-05-26 02:00:00 13 0 Calma 4 Noroeste 0 -- -- 83
2019-05-26 01:00:00 13.5 0 Calma 0 Calma 0 -- -- 82
2019-05-26 00:00:00 13.9 0 Calma 7 Norte 0 -- -- 79
2019-05-25 23:00:00 14.1 3 Nordeste 12 Este 0 -- -- 81
2019-05-25 22:00:00 14.8 6 Nordeste 22 Este 0 -- -- 77
2019-05-25 21:00:00 15.7 12 Este 26 Este 0 -- -- 72
2019-05-25 20:00:00 17.3 11 Nordeste 26 Nordeste 0 -- -- 59
2019-05-25 19:00:00 18.5 8 Nordeste 29 Nordeste 0 -- -- 55
2019-05-25 18:00:00 19.2 15 Nordeste 36 Este 0 -- -- 49
2019-05-25 17:00:00 20.5 13 Nordeste 30 Este 0 -- -- 42
2019-05-25 16:00:00 20.8 15 Nordeste 36 Nordeste 0 -- -- 40
2019-05-25 15:00:00 21 9 Nordeste 24 Nordeste 0 -- -- 36
2019-05-25 14:00:00 20 13 Nordeste 25 Este 0 -- -- 37
2019-05-25 13:00:00 19.9 9 Nordeste 22 Nordeste 0 -- -- 37
2019-05-25 12:00:00 20.4 6 Nordeste 21 Este 0 -- -- 37
2019-05-25 11:00:00 20.1 5 Nordeste 19 Este 0 -- -- 42
2019-05-25 10:00:00 18 4 Nordeste 14 Este 0 -- -- 52
2019-05-25 09:00:00 15.9 5 Nordeste 12 Nordeste 0 -- -- 56
2019-05-25 08:00:00 14 0 Calma 6 Oeste 0 -- -- 56
2019-05-25 07:00:00 12.6 0 Calma 7 Oeste 0 -- -- 54
2019-05-25 06:00:00 13.3 0 Calma 4 Este 0 -- -- 51
2019-05-25 05:00:00 14.2 2 Nordeste 10 Este 0 -- -- 49
2019-05-25 04:00:00 14.5 4 Nordeste 10 Este 0 -- -- 50
2019-05-25 03:00:00 14.8 4 Este 12 Nordeste 0 -- -- 53
2019-05-25 02:00:00 14.9 4 Este 9 Este 0 -- -- 56
2019-05-25 01:00:00 14.5 4 Nordeste 14 Nordeste 0 -- -- 65
2019-05-25 00:00:00 14.6 6 Nordeste 15 Nordeste 0 -- -- 78
2019-05-24 23:00:00 15.8 6 Nordeste 24 Este 0 -- -- 85
2019-05-24 22:00:00 15.8 10 Nordeste 31 Este 0 -- -- 85
2019-05-24 21:00:00 17.7 12 Nordeste 24 Este 0 -- -- 71
2019-05-24 20:00:00 19.4 13 Nordeste 30 Este 0 -- -- 57
2019-05-24 19:00:00 19.9 17 Nordeste 32 Este 0 -- -- 48
2019-05-24 18:00:00 22.4 16 Nordeste 39 Este 0 -- -- 40
2019-05-24 17:00:00 24.3 15 Nordeste 34 Este 0 -- -- 34
2019-05-24 16:00:00 25.1 11 Nordeste 24 Este 0 -- -- 33
2019-05-24 15:00:00 26.1 4 Sudeste 15 Nordeste 0 -- -- 31
2019-05-24 14:00:00 26.4 0 Calma 14 Norte 0 -- -- 32
2019-05-24 13:00:00 25 3 Norte 15 Noroeste 0 -- -- 35
2019-05-24 12:00:00 23.2 6 Noroeste 18 Noroeste 0 -- -- 38
2019-05-24 11:00:00 22 3 Noroeste 11 Norte 0 -- -- 38
2019-05-24 10:00:00 20.7 3 Norte 13 Noroeste 0 -- -- 40
2019-05-24 09:00:00 19.6 5 Norte 13 Noroeste 0 -- -- 41
2019-05-24 08:00:00 16.3 8 Noroeste 17 Oeste 0 -- -- 42
2019-05-24 07:00:00 16.8 7 Oeste 16 Noroeste 0 -- -- 41
2019-05-24 06:00:00 18.1 5 Noroeste 19 Noroeste 0 -- -- 39
2019-05-24 05:00:00 19.1 3 Noroeste 13 Oeste 0 -- -- 38
2019-05-24 04:00:00 18.4 6 Oeste 12 Oeste 0 -- -- 38
2019-05-24 03:00:00 16.6 3 Noroeste 9 Noroeste 0 -- -- 39
2019-05-24 02:00:00 17.5 0 Calma 6 Norte 0 -- -- 38
2019-05-24 01:00:00 18 0 Calma 9 Noroeste 0 -- -- 36
2019-05-24 00:00:00 18.8 0 Calma 7 Noroeste 0 -- -- 35
2019-05-23 23:00:00 19.8 0 Calma 9 Norte 0 -- -- 33
2019-05-23 22:00:00 20.3 5 Nordeste 20 Este 0 -- -- 31
2019-05-23 21:00:00 21.5 11 Este 30 Este 0 -- -- 30
2019-05-23 20:00:00 22.9 15 Nordeste 40 Este 0 -- -- 29
2019-05-23 19:00:00 24.6 16 Este 37 Nordeste 0 -- -- 29
2019-05-23 18:00:00 25 18 Este 41 Este 0 -- -- 29
2019-05-23 17:00:00 -- 17 Nordeste 38 Este 0 -- -- --
2019-05-23 16:00:00 25.9 16 Nordeste 37 Este 0 -- -- 30
2019-05-23 15:00:00 26.8 14 Nordeste 38 Este 0 -- -- 31
2019-05-23 14:00:00 26 16 Nordeste 34 Este 0 -- -- 30
2019-05-23 13:00:00 25.5 15 Nordeste 35 Este 0 -- -- 32
2019-05-23 12:00:00 24.8 14 Este 27 Nordeste 0 -- -- 34
2019-05-23 11:00:00 23.8 8 Nordeste 17 Este 0 -- -- 39
2019-05-23 10:00:00 22.6 2 Nordeste 7 Nordeste 0 -- -- 42
2019-05-23 09:00:00 19.6 0 Calma 7 Noroeste 0 -- -- 50
2019-05-23 08:00:00 15.6 0 Calma 7 Norte 0 -- -- 57
2019-05-23 07:00:00 14.5 0 Calma 3 Noroeste 0 -- -- 60
2019-05-23 06:00:00 14.4 0 Calma 0 Calma 0 -- -- 59
2019-05-23 05:00:00 14.1 0 Calma 9 Noroeste 0 -- -- 58
2019-05-23 04:00:00 14.1 3 Noroeste 9 Norte 0 -- -- 57
2019-05-23 03:00:00 14.6 0 Calma 7 Nordeste 0 -- -- 56
2019-05-23 02:00:00 15.9 2 Noroeste 9 Norte 0 -- -- 52
2019-05-23 01:00:00 16.7 0 Calma 10 Noroeste 0 -- -- 50
2019-05-23 00:00:00 17.5 0 Calma 5 Nordeste 0 -- -- 47
2019-05-22 23:00:00 18.6 0 Calma 13 Este 0 -- -- 45
2019-05-22 22:00:00 19 8 Nordeste 24 Este 0 -- -- 42
2019-05-22 21:00:00 20.1 13 Este 30 Este 0 -- -- 40
2019-05-22 20:00:00 21.4 16 Este 32 Nordeste 0 -- -- 38
2019-05-22 19:00:00 22.8 14 Nordeste 34 Nordeste 0 -- -- 36
2019-05-22 18:00:00 22.9 16 Nordeste 35 Este 0 -- -- 36
2019-05-22 17:00:00 23.6 17 Nordeste 36 Este 0 -- -- 36
2019-05-22 16:00:00 23.5 17 Este 32 Norte 0 -- -- 37
2019-05-22 15:00:00 23.9 15 Nordeste 35 Este 0 -- -- 35
2019-05-22 14:00:00 23.5 15 Nordeste 32 Este 0 -- -- 37
2019-05-22 13:00:00 22.2 16 Nordeste 31 Este 0 -- -- 39
2019-05-22 12:00:00 21.8 14 Nordeste 27 Este 0 -- -- 45
2019-05-22 11:00:00 20.4 10 Este 18 Este 0 -- -- 52
2019-05-22 10:00:00 18.8 5 Nordeste 15 Este 0 -- -- 60
2019-05-22 09:00:00 17 0 Calma 5 Nordeste 0 -- -- 62
2019-05-22 08:00:00 13.4 0 Calma 9 Noroeste 0 -- -- 74
2019-05-22 07:00:00 11.8 0 Calma 0 Calma 0 -- -- 79
2019-05-22 06:00:00 12.7 0 Calma 8 Oeste 0 -- -- 84
2019-05-22 05:00:00 13.4 0 Calma 8 Noroeste 0 -- -- 71
2019-05-22 04:00:00 13 0 Calma 6 Norte 0 -- -- 78
2019-05-22 03:00:00 14.5 0 Calma 5 Noroeste 0 -- -- 72
2019-05-22 02:00:00 15 0 Calma 4 Noroeste 0 -- -- 71
2019-05-22 01:00:00 15.6 0 Calma 5 Nordeste 0 -- -- 74
2019-05-22 00:00:00 16.1 3 Este 17 Este 0 -- -- 74